createdAt,value
2023-01-27T00:01:18.393Z,18.50
2023-01-27T00:03:47.061Z,15.15
2023-01-27T00:06:15.776Z,16.13
2023-01-27T00:08:44.315Z,15.70
2023-01-27T00:11:30.438Z,15.23
2023-01-27T00:13:59.042Z,17.55
2023-01-27T00:16:28.953Z,17.42
2023-01-27T00:18:57.487Z,15.82
2023-01-27T00:21:43.722Z,16.13
2023-01-27T00:24:31.054Z,16.92
2023-01-27T00:26:59.762Z,19.60
2023-01-27T00:29:28.294Z,15.68
2023-01-27T00:32:15.881Z,16.40
2023-01-27T00:34:44.547Z,17.58
2023-01-27T00:37:13.046Z,18.10
2023-01-27T00:39:41.586Z,16.88
2023-01-27T00:42:10.217Z,17.98
2023-01-27T00:44:38.853Z,19.55
2023-01-27T00:47:08.763Z,17.98
2023-01-27T00:49:37.442Z,17.20
2023-01-27T00:52:06.270Z,20.90
2023-01-27T00:54:34.822Z,19.80
2023-01-27T00:57:04.524Z,17.27
2023-01-27T00:59:33.070Z,16.95
2023-01-27T01:02:01.647Z,15.95
2023-01-27T01:04:31.844Z,17.48
2023-01-27T01:07:00.328Z,21.10
2023-01-27T01:09:29.010Z,21.10
2023-01-27T01:11:57.600Z,18.08
2023-01-27T01:14:26.158Z,19.92
2023-01-27T01:16:56.318Z,19.60
2023-01-27T01:19:25.013Z,19.05
2023-01-27T01:21:54.899Z,18.08
2023-01-27T01:24:23.552Z,18.48
2023-01-27T01:26:52.332Z,18.17
2023-01-27T01:29:20.851Z,20.95
2023-01-27T01:31:52.389Z,20.13
2023-01-27T01:34:21.063Z,18.45
2023-01-27T01:36:49.590Z,18.83
2023-01-27T01:39:19.539Z,21.10
2023-01-27T01:41:48.120Z,19.50
2023-01-27T01:44:22.573Z,18.13
2023-01-27T01:46:51.218Z,20.98
2023-01-27T01:49:21.128Z,21.75
2023-01-27T01:51:51.272Z,18.73
2023-01-27T01:54:23.922Z,21.23
2023-01-27T01:56:54.719Z,21.42
2023-01-27T01:59:27.089Z,21.50
2023-01-27T02:01:56.846Z,21.00
2023-01-27T02:04:27.873Z,21.38
2023-01-27T02:07:00.486Z,19.67
2023-01-27T02:09:30.692Z,19.45
2023-01-27T02:11:59.590Z,21.17
2023-01-27T02:14:28.095Z,21.55
2023-01-27T02:16:56.757Z,22.20
2023-01-27T02:19:28.946Z,21.38
2023-01-27T02:21:58.244Z,21.15
2023-01-27T02:24:32.514Z,23.02
2023-01-27T02:27:02.595Z,21.83
2023-01-27T02:29:31.094Z,20.45
2023-01-27T02:31:59.737Z,21.15
2023-01-27T02:34:31.227Z,21.25
2023-01-27T02:37:03.506Z,21.52
2023-01-27T02:39:35.558Z,22.48
2023-01-27T02:42:06.176Z,22.90
2023-01-27T02:44:34.962Z,20.13
2023-01-27T02:47:03.549Z,19.27
2023-01-27T02:49:32.085Z,19.73
2023-01-27T02:52:00.823Z,21.67
2023-01-27T02:54:29.400Z,20.40
2023-01-27T02:56:58.141Z,20.45
2023-01-27T02:59:28.134Z,24.45
2023-01-27T03:01:56.693Z,21.40
2023-01-27T03:04:25.299Z,25.08
2023-01-27T03:06:54.008Z,22.45
2023-01-27T03:09:22.542Z,21.45
2023-01-27T03:12:08.781Z,21.23
2023-01-27T03:14:56.366Z,21.13
2023-01-27T03:17:42.462Z,22.17
2023-01-27T03:20:13.233Z,22.50
2023-01-27T03:22:41.879Z,24.02
2023-01-27T03:25:11.544Z,25.35
2023-01-27T03:27:40.500Z,21.48
2023-01-27T03:30:12.233Z,21.27
2023-01-27T03:32:46.815Z,24.73
2023-01-27T03:35:15.742Z,21.20
2023-01-27T03:38:02.483Z,22.42
2023-01-27T03:40:48.401Z,21.58
2023-01-27T03:43:34.635Z,21.45
2023-01-27T03:46:17.706Z,20.73
2023-01-27T03:48:49.831Z,19.02
2023-01-27T03:51:18.581Z,19.60
2023-01-27T03:53:47.249Z,21.40
2023-01-27T03:56:15.952Z,19.27
2023-01-27T03:58:44.576Z,19.30
2023-01-27T04:01:19.983Z,20.73
2023-01-27T04:04:07.398Z,16.65
2023-01-27T04:06:53.263Z,18.73
2023-01-27T04:09:23.670Z,19.25
2023-01-27T04:11:59.030Z,19.02
2023-01-27T04:14:29.968Z,22.85
2023-01-27T04:17:01.915Z,20.52
2023-01-27T04:19:30.471Z,21.05
2023-01-27T04:21:59.572Z,19.55
2023-01-27T04:24:28.325Z,18.90
2023-01-27T04:26:58.766Z,20.20
2023-01-27T04:29:29.160Z,20.17
2023-01-27T04:31:59.265Z,18.63
2023-01-27T04:34:28.266Z,18.65
2023-01-27T04:36:56.992Z,20.00
2023-01-27T04:39:25.789Z,20.35
2023-01-27T04:41:54.407Z,20.13
2023-01-27T04:44:22.921Z,21.48
2023-01-27T04:46:51.700Z,17.80
2023-01-27T04:49:22.390Z,21.25
2023-01-27T04:51:51.016Z,20.13
2023-01-27T04:54:19.724Z,19.70
2023-01-27T04:56:57.907Z,15.60
2023-01-27T04:59:26.518Z,17.90
2023-01-27T05:01:55.289Z,18.98
2023-01-27T05:04:26.513Z,18.95
2023-01-27T05:06:55.540Z,18.55
2023-01-27T05:09:24.350Z,17.45
2023-01-27T05:11:52.936Z,19.58
2023-01-27T05:14:23.725Z,17.58
2023-01-27T05:16:52.674Z,19.95
2023-01-27T05:19:21.379Z,17.50
2023-01-27T05:21:51.379Z,18.77
2023-01-27T05:24:19.913Z,19.10
2023-01-27T05:26:48.713Z,16.90
2023-01-27T05:29:17.806Z,18.45
2023-01-27T05:31:46.534Z,18.40
2023-01-27T05:34:15.805Z,18.77
2023-01-27T05:36:44.497Z,19.27
2023-01-27T05:39:14.597Z,19.83
2023-01-27T05:41:43.202Z,18.48
2023-01-27T05:44:12.412Z,19.70
2023-01-27T05:46:42.091Z,18.95
2023-01-27T05:49:10.634Z,17.83
2023-01-27T05:51:40.780Z,17.77
2023-01-27T05:54:09.529Z,17.23
2023-01-27T05:56:40.760Z,19.02
2023-01-27T05:59:09.467Z,18.42
2023-01-27T06:01:38.496Z,17.27
2023-01-27T06:04:07.205Z,16.23
2023-01-27T06:06:35.835Z,17.13
2023-01-27T06:09:04.516Z,14.73
2023-01-27T06:11:33.130Z,20.23
2023-01-27T06:14:03.186Z,16.88
2023-01-27T06:16:31.737Z,27.88
2023-01-27T06:19:00.331Z,16.83
2023-01-27T06:21:28.959Z,20.02
2023-01-27T06:23:58.306Z,17.40
2023-01-27T06:26:27.443Z,20.88
2023-01-27T06:28:58.394Z,17.15
2023-01-27T06:31:28.548Z,17.73
2023-01-27T06:33:57.600Z,25.23
2023-01-27T06:36:26.146Z,21.92
2023-01-27T06:38:54.728Z,18.25
2023-01-27T06:41:23.406Z,16.20
2023-01-27T06:43:51.957Z,19.60
2023-01-27T06:46:20.870Z,15.73
2023-01-27T06:48:51.147Z,19.15
2023-01-27T06:51:19.843Z,18.40
2023-01-27T06:53:48.453Z,16.35
2023-01-27T06:56:17.639Z,17.38
2023-01-27T06:58:46.346Z,16.02
2023-01-27T07:01:15.087Z,16.35
2023-01-27T07:03:45.068Z,18.02
2023-01-27T07:06:16.312Z,17.50
2023-01-27T07:08:47.232Z,15.48
2023-01-27T07:11:15.885Z,17.45
2023-01-27T07:13:44.700Z,15.80
2023-01-27T07:16:13.825Z,18.70
2023-01-27T07:18:42.712Z,23.23
2023-01-27T07:21:11.556Z,17.90
2023-01-27T07:23:41.619Z,19.60
2023-01-27T07:26:24.184Z,29.30
2023-01-27T07:28:54.047Z,35.55
2023-01-27T07:31:22.800Z,27.85
2023-01-27T07:33:51.515Z,36.53
2023-01-27T07:36:20.605Z,31.30
2023-01-27T07:38:52.330Z,32.85
2023-01-27T07:41:23.088Z,28.98
2023-01-27T07:43:52.598Z,33.38
2023-01-27T07:46:21.789Z,28.77
2023-01-27T07:48:50.705Z,39.25
2023-01-27T07:51:19.448Z,33.30
2023-01-27T07:53:48.642Z,35.97
2023-01-27T07:56:18.712Z,27.42
2023-01-27T07:58:47.370Z,31.20
2023-01-27T08:01:16.411Z,26.70
2023-01-27T08:03:45.139Z,24.83
2023-01-27T08:06:14.625Z,25.13
2023-01-27T08:08:43.471Z,30.25
2023-01-27T08:11:14.583Z,28.85
2023-01-27T08:13:44.984Z,27.40
2023-01-27T08:16:14.852Z,30.85
2023-01-27T08:18:43.630Z,27.92
2023-01-27T08:21:13.404Z,32.30
2023-01-27T08:23:42.047Z,25.83
2023-01-27T08:26:10.715Z,28.13
2023-01-27T08:28:40.054Z,25.88
2023-01-27T08:31:11.773Z,24.25
2023-01-27T08:33:40.638Z,29.77
2023-01-27T08:36:10.828Z,25.40
2023-01-27T08:38:39.618Z,25.73
2023-01-27T08:41:09.440Z,26.45
2023-01-27T08:43:38.081Z,24.33
2023-01-27T08:46:07.560Z,24.50
2023-01-27T08:48:38.080Z,27.30
2023-01-27T08:51:07.431Z,23.80
2023-01-27T08:53:37.021Z,23.65
2023-01-27T08:56:07.399Z,22.27
2023-01-27T08:58:36.338Z,24.45
2023-01-27T09:01:06.131Z,22.48
2023-01-27T09:03:36.232Z,21.35
2023-01-27T09:06:06.777Z,23.52
2023-01-27T09:08:35.323Z,23.98
2023-01-27T09:11:11.325Z,24.27
2023-01-27T09:13:39.988Z,23.55
2023-01-27T09:16:09.234Z,22.05
2023-01-27T09:18:39.222Z,29.13
2023-01-27T09:21:08.299Z,25.65
2023-01-27T09:23:36.978Z,21.27
2023-01-27T09:26:05.892Z,22.63
2023-01-27T09:28:34.722Z,20.92
2023-01-27T09:31:03.328Z,21.98
2023-01-27T09:33:32.103Z,22.60
2023-01-27T09:36:06.391Z,22.10
2023-01-27T09:38:37.735Z,20.85
2023-01-27T09:41:55.206Z,24.23
2023-01-27T09:44:52.212Z,24.38
2023-01-27T09:47:39.204Z,30.58
2023-01-27T09:50:44.635Z,26.90
2023-01-27T09:53:52.368Z,29.40
2023-01-27T09:56:28.969Z,24.17
2023-01-27T09:59:13.897Z,23.00
2023-01-27T10:01:51.034Z,28.10
2023-01-27T10:04:38.514Z,23.77
2023-01-27T10:07:48.501Z,24.05
2023-01-27T10:10:33.048Z,25.15
2023-01-27T10:13:14.905Z,24.20
2023-01-27T10:15:58.569Z,24.35
2023-01-27T10:18:38.051Z,21.98
2023-01-27T10:21:12.445Z,26.92
2023-01-27T10:23:48.019Z,22.13
2023-01-27T10:26:30.211Z,21.10
2023-01-27T10:29:04.925Z,22.05
2023-01-27T10:31:37.059Z,23.73
2023-01-27T10:34:10.607Z,24.08
2023-01-27T10:36:43.517Z,23.67
2023-01-27T10:39:17.548Z,23.98
2023-01-27T10:41:53.678Z,22.65
2023-01-27T10:44:35.600Z,22.67
2023-01-27T10:47:10.946Z,24.25
2023-01-27T10:49:41.446Z,22.92
2023-01-27T10:52:12.751Z,28.38
2023-01-27T10:54:43.784Z,29.17
2023-01-27T10:57:16.190Z,27.38
2023-01-27T11:00:10.915Z,26.60
2023-01-27T11:02:42.249Z,27.45
2023-01-27T11:05:12.974Z,24.25
2023-01-27T11:07:47.781Z,24.70
2023-01-27T11:10:18.834Z,23.42
2023-01-27T11:12:50.412Z,24.25
2023-01-27T11:15:21.647Z,24.33
2023-01-27T11:17:53.779Z,23.92
2023-01-27T11:20:29.783Z,21.10
2023-01-27T11:23:04.625Z,25.67
2023-01-27T11:25:43.387Z,23.92
2023-01-27T11:28:24.996Z,23.27
2023-01-27T11:30:59.296Z,23.13
2023-01-27T11:33:32.777Z,23.42
2023-01-27T11:36:01.344Z,21.70
2023-01-27T11:38:30.094Z,23.17
2023-01-27T11:40:58.625Z,20.77
2023-01-27T11:43:28.531Z,20.35
2023-01-27T11:45:59.126Z,21.50
2023-01-27T11:48:27.705Z,23.00
2023-01-27T11:50:56.509Z,20.10
2023-01-27T11:53:27.866Z,20.58
2023-01-27T11:56:00.644Z,22.13
2023-01-27T11:58:35.452Z,21.20
2023-01-27T12:01:06.882Z,19.52
2023-01-27T12:03:47.473Z,21.33
2023-01-27T12:06:17.490Z,22.27
2023-01-27T12:08:47.536Z,23.48
2023-01-27T12:11:25.059Z,21.73
2023-01-27T12:13:56.955Z,20.13
2023-01-27T12:16:33.149Z,23.52
2023-01-27T12:19:04.087Z,19.17
2023-01-27T12:21:39.790Z,18.23
2023-01-27T12:24:14.419Z,22.15
2023-01-27T12:26:44.005Z,18.98
2023-01-27T12:29:20.079Z,21.70
2023-01-27T12:31:50.437Z,20.20
2023-01-27T12:34:30.831Z,21.10
2023-01-27T12:36:59.479Z,18.35
2023-01-27T12:39:42.741Z,18.95
2023-01-27T12:42:40.886Z,21.17
2023-01-27T12:45:23.612Z,18.58
2023-01-27T12:48:01.215Z,17.80
2023-01-27T12:50:31.377Z,18.77
2023-01-27T12:53:07.076Z,16.65
2023-01-27T12:55:40.147Z,18.38
2023-01-27T12:58:28.035Z,17.08
2023-01-27T13:00:59.173Z,19.15
2023-01-27T13:03:27.931Z,18.45
2023-01-27T13:05:57.528Z,22.48
2023-01-27T13:08:26.675Z,25.13
2023-01-27T13:10:57.155Z,20.77
2023-01-27T13:13:26.928Z,20.23
2023-01-27T13:16:01.127Z,17.60
2023-01-27T13:18:34.561Z,21.55
2023-01-27T13:21:12.630Z,18.90
2023-01-27T13:23:42.283Z,19.23
2023-01-27T13:26:18.131Z,16.52
2023-01-27T13:28:53.277Z,21.50
2023-01-27T13:31:31.055Z,18.25
2023-01-27T13:34:02.801Z,21.85
2023-01-27T13:36:36.516Z,17.17
2023-01-27T13:39:09.797Z,18.55
2023-01-27T13:41:42.760Z,17.15
2023-01-27T13:44:19.446Z,20.35
2023-01-27T13:46:49.446Z,17.08
2023-01-27T13:49:27.289Z,18.35
2023-01-27T13:51:55.897Z,17.77
2023-01-27T13:54:25.534Z,16.00
2023-01-27T13:57:13.611Z,18.13
2023-01-27T13:59:48.587Z,17.67
2023-01-27T14:02:48.540Z,16.40
2023-01-27T14:05:32.556Z,17.30
2023-01-27T14:08:08.205Z,17.05
2023-01-27T14:10:38.294Z,18.42
2023-01-27T14:13:18.463Z,16.98
2023-01-27T14:15:52.150Z,17.73
2023-01-27T14:18:23.291Z,18.48
2023-01-27T14:21:04.309Z,16.30
2023-01-27T14:23:43.220Z,16.10
2023-01-27T14:26:32.155Z,18.30
2023-01-27T14:29:07.376Z,15.60
2023-01-27T14:31:47.398Z,13.15
2023-01-27T14:34:33.898Z,17.50
2023-01-27T14:37:10.750Z,17.60
2023-01-27T14:39:44.251Z,17.80
2023-01-27T14:42:16.964Z,15.38
2023-01-27T14:45:03.009Z,19.17
2023-01-27T14:47:35.359Z,19.95
2023-01-27T14:50:17.104Z,15.68
2023-01-27T14:52:48.983Z,19.17
2023-01-27T14:55:46.106Z,17.70
2023-01-27T14:58:28.911Z,17.38
2023-01-27T15:01:04.969Z,15.70
2023-01-27T15:04:22.073Z,13.40
2023-01-27T15:06:56.596Z,15.43
2023-01-27T15:09:50.766Z,17.15
2023-01-27T15:12:37.782Z,14.57
2023-01-27T15:15:43.103Z,17.02
2023-01-27T15:18:30.901Z,15.45
2023-01-27T15:21:39.802Z,15.50
2023-01-27T15:24:32.655Z,14.05
2023-01-27T15:27:01.487Z,15.30
2023-01-27T15:29:31.894Z,15.18
2023-01-27T15:32:29.244Z,14.45
2023-01-27T15:35:38.097Z,18.23
2023-01-27T15:38:37.753Z,15.48
2023-01-27T15:41:16.167Z,15.98
2023-01-27T15:44:05.281Z,15.50
2023-01-27T15:46:35.253Z,15.40
2023-01-27T15:49:05.098Z,16.23
2023-01-27T15:51:37.482Z,15.75
2023-01-27T15:54:06.300Z,13.57
2023-01-27T15:56:43.939Z,15.88
2023-01-27T15:59:16.403Z,15.25
2023-01-27T16:01:45.285Z,15.05
2023-01-27T16:04:17.384Z,16.30
2023-01-27T16:06:48.318Z,13.82
2023-01-27T16:09:25.689Z,13.95
2023-01-27T16:12:03.859Z,13.27
2023-01-27T16:14:50.234Z,16.83
2023-01-27T16:17:25.065Z,13.77
2023-01-27T16:20:13.693Z,12.75
2023-01-27T16:22:45.137Z,14.43
2023-01-27T16:25:23.294Z,13.75
2023-01-27T16:27:58.528Z,14.10
2023-01-27T16:30:29.097Z,14.73
2023-01-27T16:33:06.340Z,16.45
2023-01-27T16:35:40.826Z,16.45
2023-01-27T16:38:17.573Z,12.13
2023-01-27T16:40:50.387Z,13.95
2023-01-27T16:43:21.609Z,14.55
2023-01-27T16:45:51.780Z,16.05
2023-01-27T16:48:28.758Z,14.13
2023-01-27T16:51:07.427Z,15.73
2023-01-27T16:53:36.367Z,15.82
2023-01-27T16:56:06.237Z,14.60
2023-01-27T16:58:46.201Z,14.02
2023-01-27T17:01:21.936Z,14.70
2023-01-27T17:03:50.844Z,14.90
2023-01-27T17:06:19.507Z,15.77
2023-01-27T17:08:48.698Z,15.30
2023-01-27T17:11:24.600Z,18.88
2023-01-27T17:13:59.457Z,15.00
2023-01-27T17:16:30.175Z,21.52
2023-01-27T17:19:04.084Z,20.60
2023-01-27T17:21:36.761Z,18.02
2023-01-27T17:24:12.245Z,16.40
2023-01-27T17:26:41.075Z,16.98
2023-01-27T17:29:15.798Z,16.13
2023-01-27T17:31:44.503Z,15.50
2023-01-27T17:34:17.987Z,14.00
2023-01-27T17:37:09.727Z,13.63
2023-01-27T17:39:39.493Z,18.85
2023-01-27T17:42:08.118Z,14.88
2023-01-27T17:44:38.384Z,14.48
2023-01-27T17:47:07.494Z,16.17
2023-01-27T17:49:36.364Z,17.23
2023-01-27T17:52:05.525Z,18.42
2023-01-27T17:54:37.666Z,15.60
2023-01-27T17:57:09.467Z,15.80
2023-01-27T17:59:41.008Z,21.60
2023-01-27T18:02:16.743Z,25.02
2023-01-27T18:04:45.634Z,21.38
2023-01-27T18:07:20.807Z,26.58
2023-01-27T18:09:54.357Z,29.80
2023-01-27T18:12:34.867Z,26.85
2023-01-27T18:15:40.685Z,25.52
2023-01-27T18:18:23.303Z,22.65
2023-01-27T18:21:04.052Z,22.60
2023-01-27T18:23:34.171Z,30.17
2023-01-27T18:26:07.500Z,29.30
2023-01-27T18:28:38.700Z,24.15
2023-01-27T18:31:16.737Z,20.50
2023-01-27T18:33:46.613Z,26.58
2023-01-27T18:36:23.506Z,23.38
2023-01-27T18:38:52.235Z,21.70
2023-01-27T18:41:25.132Z,23.50
2023-01-27T18:43:53.975Z,22.42
2023-01-27T18:46:24.254Z,26.83
2023-01-27T18:48:53.140Z,27.05
2023-01-27T18:51:21.740Z,25.75
2023-01-27T18:53:50.570Z,23.13
2023-01-27T18:56:19.146Z,21.23
2023-01-27T18:58:48.009Z,19.92
2023-01-27T19:01:21.852Z,23.42
2023-01-27T19:03:52.380Z,18.98
2023-01-27T19:06:20.967Z,21.98
2023-01-27T19:08:52.080Z,20.92
2023-01-27T19:11:20.683Z,19.88
2023-01-27T19:13:49.454Z,21.35
2023-01-27T19:16:18.436Z,20.88
2023-01-27T19:18:47.053Z,19.85
2023-01-27T19:21:17.583Z,19.83
2023-01-27T19:23:48.292Z,18.60
2023-01-27T19:26:18.781Z,17.90
2023-01-27T19:28:47.744Z,16.20
2023-01-27T19:31:16.476Z,20.00
2023-01-27T19:33:45.333Z,19.55
2023-01-27T19:36:22.407Z,18.95
2023-01-27T19:38:52.492Z,18.70
2023-01-27T19:41:21.177Z,18.38
2023-01-27T19:43:50.199Z,18.55
2023-01-27T19:46:22.029Z,18.85
2023-01-27T19:48:50.564Z,19.25
2023-01-27T19:51:20.589Z,19.50
2023-01-27T19:53:49.485Z,26.77
2023-01-27T19:56:19.569Z,26.35
2023-01-27T19:58:51.978Z,41.78
2023-01-27T20:01:20.811Z,38.40
2023-01-27T20:03:49.615Z,29.45
2023-01-27T20:06:21.359Z,34.30
2023-01-27T20:08:53.796Z,36.22
2023-01-27T20:11:36.203Z,33.10
2023-01-27T20:14:07.643Z,28.98
2023-01-27T20:16:36.431Z,33.30
2023-01-27T20:19:05.091Z,31.80
2023-01-27T20:21:35.050Z,34.40
2023-01-27T20:24:04.026Z,31.58
2023-01-27T20:26:33.146Z,29.67
2023-01-27T20:29:02.023Z,27.95
2023-01-27T20:31:30.955Z,27.60
2023-01-27T20:34:00.754Z,29.17
2023-01-27T20:36:29.704Z,35.28
2023-01-27T20:38:59.967Z,31.73
2023-01-27T20:41:29.355Z,25.33
2023-01-27T20:44:21.869Z,29.77
2023-01-27T20:46:51.290Z,23.13
2023-01-27T20:49:20.373Z,26.55
2023-01-27T20:51:50.409Z,28.35
2023-01-27T21:00:19.806Z,30.30
2023-01-27T21:02:49.641Z,25.10
2023-01-27T21:05:19.291Z,23.58
2023-01-27T21:07:48.216Z,26.65
2023-01-27T21:10:20.042Z,27.00
2023-01-27T21:12:48.717Z,25.27
2023-01-27T21:15:18.916Z,22.05
2023-01-27T21:17:47.420Z,24.08
2023-01-27T21:20:16.221Z,22.38
2023-01-27T21:22:46.608Z,30.95
2023-01-27T21:25:16.406Z,23.27
2023-01-27T21:27:45.286Z,23.83
2023-01-27T21:30:14.688Z,25.80
2023-01-27T21:32:44.588Z,21.58
2023-01-27T21:35:13.605Z,22.48
2023-01-27T21:37:42.790Z,24.50
2023-01-27T21:40:13.339Z,21.92
2023-01-27T21:42:59.329Z,23.17
2023-01-27T21:45:28.718Z,22.27
2023-01-27T21:47:58.710Z,23.13
2023-01-27T21:50:27.351Z,22.33
2023-01-27T21:52:55.943Z,22.25
2023-01-27T21:55:25.918Z,24.92
2023-01-27T21:57:55.837Z,20.63
2023-01-27T22:00:26.075Z,19.40
2023-01-27T22:02:55.815Z,18.35
2023-01-27T22:05:25.865Z,21.73
2023-01-27T22:07:54.743Z,20.60
2023-01-27T22:10:24.700Z,23.20
2023-01-27T22:12:57.211Z,21.00
2023-01-27T22:15:28.729Z,23.88
2023-01-27T22:17:57.373Z,24.85
2023-01-27T22:20:27.458Z,21.17
2023-01-27T22:22:56.181Z,21.60
2023-01-27T22:25:25.857Z,21.10
2023-01-27T22:27:55.766Z,19.70
2023-01-27T22:30:24.347Z,24.00
2023-01-27T22:32:52.986Z,21.33
2023-01-27T22:35:21.641Z,22.08
2023-01-27T22:37:53.097Z,19.05
2023-01-27T22:40:21.782Z,18.58
2023-01-27T22:42:50.682Z,19.77
2023-01-27T22:45:19.448Z,20.05
2023-01-27T22:47:49.493Z,19.30
2023-01-27T22:50:18.700Z,18.50
2023-01-27T22:52:47.221Z,22.70
2023-01-27T22:55:17.479Z,21.08
2023-01-27T22:57:47.880Z,17.73
2023-01-27T23:00:17.855Z,18.20
2023-01-27T23:02:46.467Z,20.52
2023-01-27T23:05:15.389Z,22.48
2023-01-27T23:07:44.551Z,19.33
2023-01-27T23:10:13.081Z,16.73
2023-01-27T23:12:43.205Z,19.92
2023-01-27T23:15:13.024Z,19.10
2023-01-27T23:17:41.869Z,19.05
2023-01-27T23:20:12.290Z,17.75
2023-01-27T23:22:41.179Z,17.30
2023-01-27T23:25:11.694Z,17.15
2023-01-27T23:27:40.364Z,18.38
2023-01-27T23:30:12.625Z,17.33
2023-01-27T23:32:41.195Z,20.27
2023-01-27T23:35:10.779Z,17.08
2023-01-27T23:37:42.080Z,17.40
2023-01-27T23:40:12.913Z,17.10
2023-01-27T23:42:41.415Z,17.65
2023-01-27T23:45:12.482Z,13.63
2023-01-27T23:47:42.705Z,16.35
2023-01-27T23:50:12.392Z,15.80
2023-01-27T23:52:40.913Z,15.00
2023-01-27T23:55:10.288Z,16.25
2023-01-27T23:57:38.764Z,18.38
